Terminal Aerodrome Forecast
Issued by NWS

Home | Current Version | Previous Version | Text Only | Print | Product List | Glossary On
Versions: 1 2 3 4 5 6 7 8 9 10 11 12 13 14 15 16 17
000
FTUS43 KIND 051400 AAB
TAFLAF
TAF AMD
KLAF 051405Z 0514/0612 VRB03KT P6SM SCT250
      TEMPO 0514/0516 5SM HZ
     FM051600 16005KT P6SM SCT045 SCT250
     FM052300 17003KT P6SM SKC=

USA.gov is the U.S. government's official web portal to all federal, state and local government web resources and services.